Time;durP1;ratioP1;P1;durP2;ratioP2;P2;SDS_P1;SDS_P2;PMS_P1;PMS_P2;Temp;Humidity;BMP_temperature;BMP_pressure;BME280_temperature;BME280_humidity;BME280_pressure;Samples;Min_cycle;Max_cycle;Signal;HPM_P1;HPM_P2
2020/12/04 00:01:45;;;;;;;19.95;12.60;;;;;;;18.72;47.38;99221.10;2317377;76;50260;-77
2020/12/04 00:04:47;;;;;;;20.57;12.93;;;;;;;18.72;47.33;99209.05;2317516;76;50725;-76
2020/12/04 00:07:49;;;;;;;17.75;12.10;;;;;;;18.71;47.37;99206.08;2317558;76;51522;-77
2020/12/04 00:10:52;;;;;;;19.85;12.82;;;;;;;18.70;47.31;99201.74;2317506;75;51533;-76
2020/12/04 00:13:54;;;;;;;19.73;11.80;;;;;;;18.67;47.41;99199.50;2317383;76;50912;-78
2020/12/04 00:16:56;;;;;;;20.40;12.93;;;;;;;18.66;47.36;99200.03;2317366;76;49989;-78
2020/12/04 00:19:58;;;;;;;16.50;11.60;;;;;;;18.64;47.44;99195.41;2317486;76;49954;-77
2020/12/04 00:23:00;;;;;;;17.95;11.60;;;;;;;18.63;47.41;99202.34;2307269;76;51524;-77
2020/12/04 00:26:02;;;;;;;19.57;12.63;;;;;;;18.63;47.36;99188.94;2305785;77;51619;-77
2020/12/04 00:29:05;;;;;;;18.32;11.88;;;;;;;18.61;47.39;99204.41;2305705;77;51460;-76
2020/12/04 00:32:08;;;;;;;18.57;12.13;;;;;;;18.59;47.41;99189.06;2305553;77;50478;-76
2020/12/04 00:35:10;;;;;;;21.62;12.05;;;;;;;18.60;47.34;99182.66;2308659;76;51525;-77
2020/12/04 00:38:12;;;;;;;18.52;12.63;;;;;;;18.60;47.37;99189.36;2317398;76;50660;-77
2020/12/04 00:41:14;;;;;;;19.07;11.78;;;;;;;18.60;47.37;99184.00;2317309;76;52405;-76
2020/12/04 00:44:17;;;;;;;20.97;11.53;;;;;;;18.57;47.37;99183.10;2317286;76;51502;-78
2020/12/04 00:47:19;;;;;;;17.10;12.10;;;;;;;18.57;47.33;99177.22;2308827;75;51529;-77
2020/12/04 00:50:21;;;;;;;15.83;11.22;;;;;;;18.57;47.33;99173.73;2296499;77;50441;-76
2020/12/04 00:53:23;;;;;;;18.65;11.45;;;;;;;18.55;47.37;99179.81;2295553;76;50327;-76
2020/12/04 00:56:31;;;;;;;17.77;11.93;;;;;;;18.54;47.30;99177.66;2296469;77;50710;-76
2020/12/04 00:59:33;;;;;;;20.17;11.73;;;;;;;18.55;47.25;99169.10;2296103;77;50820;-75
2020/12/04 01:02:35;;;;;;;19.80;12.20;;;;;;;18.52;47.28;99159.64;2296821;77;51598;-77
2020/12/04 01:05:37;;;;;;;16.25;11.25;;;;;;;18.50;47.33;99149.16;2284819;76;51701;-76
2020/12/04 01:08:41;;;;;;;17.92;11.38;;;;;;;18.49;47.31;99137.32;2275239;75;51520;-77
2020/12/04 01:11:44;;;;;;;17.42;11.43;;;;;;;18.48;47.32;99143.73;2278381;77;50900;-76
2020/12/04 01:14:46;;;;;;;16.57;11.25;;;;;;;18.45;47.33;99142.83;2278970;78;50662;-76
2020/12/04 01:17:48;;;;;;;17.98;11.03;;;;;;;18.45;47.30;99138.81;2278849;78;51477;-76
2020/12/04 01:20:50;;;;;;;20.17;11.63;;;;;;;18.44;47.31;99131.80;2278989;78;50909;-76
2020/12/04 01:23:53;;;;;;;16.95;11.43;;;;;;;18.43;47.28;99130.98;2278958;77;50413;-76
2020/12/04 01:26:56;;;;;;;17.98;10.63;;;;;;;18.44;47.25;99125.92;2279227;78;51602;-76
2020/12/04 01:29:58;;;;;;;14.43;10.10;;;;;;;18.41;47.31;99124.21;2279080;78;50381;-76
2020/12/04 01:33:00;;;;;;;16.30;10.65;;;;;;;18.40;47.30;99126.08;2279131;78;50230;-76
2020/12/04 01:36:02;;;;;;;18.02;11.12;;;;;;;18.36;47.37;99118.16;2300993;76;50766;-76
2020/12/04 01:39:05;;;;;;;19.07;11.57;;;;;;;18.36;47.37;99128.88;2317757;76;50315;-76
2020/12/04 01:42:07;;;;;;;18.12;11.15;;;;;;;18.34;47.41;99114.91;2317720;76;50695;-76
2020/12/04 01:45:09;;;;;;;18.40;11.03;;;;;;;18.32;47.47;99113.48;2317805;75;51514;-76
2020/12/04 01:48:11;;;;;;;19.27;11.68;;;;;;;18.33;47.42;99113.25;2318066;76;51578;-76
2020/12/04 01:51:13;;;;;;;17.25;11.63;;;;;;;18.31;47.42;99107.29;2332164;76;51545;-76
2020/12/04 01:54:16;;;;;;;15.50;10.60;;;;;;;18.31;47.46;99101.94;2318050;75;50242;-76
2020/12/04 01:57:22;;;;;;;16.40;11.22;;;;;;;18.31;47.39;99091.75;2318115;76;52011;-76
2020/12/04 02:00:24;;;;;;;18.07;11.12;;;;;;;18.30;47.36;99090.94;2318315;76;50434;-76
2020/12/04 02:03:27;;;;;;;18.73;11.38;;;;;;;18.29;47.34;99096.00;2318110;75;50658;-76
2020/12/04 02:06:32;;;;;;;16.67;11.25;;;;;;;18.29;47.33;99085.30;2318271;76;50693;-76
2020/12/04 02:09:36;;;;;;;15.80;10.38;;;;;;;18.28;47.31;99075.61;2318385;76;50045;-76
2020/12/04 02:12:38;;;;;;;15.23;10.28;;;;;;;18.25;47.38;99068.83;2317931;76;50536;-76
2020/12/04 02:15:40;;;;;;;14.53;10.65;;;;;;;18.25;47.40;99065.34;2317628;76;50652;-76
2020/12/04 02:18:43;;;;;;;14.60;10.08;;;;;;;18.26;47.28;99058.44;2317773;76;52007;-76
2020/12/04 02:21:45;;;;;;;15.25;9.70;;;;;;;18.22;47.44;99057.75;2317500;75;51569;-76
2020/12/04 02:24:47;;;;;;;16.42;10.68;;;;;;;18.18;47.55;99057.88;2317449;76;51567;-75
2020/12/04 02:27:49;;;;;;;18.73;10.72;;;;;;;18.17;47.51;99052.23;2317465;76;50394;-76
2020/12/04 02:30:51;;;;;;;16.67;10.43;;;;;;;18.16;47.54;99054.59;2316830;75;51570;-76
2020/12/04 02:33:54;;;;;;;14.07;10.15;;;;;;;18.15;47.51;99052.97;2317389;76;51534;-75
2020/12/04 02:36:56;;;;;;;15.23;9.85;;;;;;;18.13;47.55;99050.50;2317063;75;50383;-75
2020/12/04 02:39:58;;;;;;;17.25;9.73;;;;;;;18.15;47.47;99050.29;2317393;75;51552;-76
2020/12/04 02:43:01;;;;;;;16.20;10.03;;;;;;;18.13;47.57;99043.80;2317421;76;51527;-76
2020/12/04 02:46:03;;;;;;;15.13;9.70;;;;;;;18.14;47.55;99048.66;2317675;76;50312;-76
2020/12/04 02:49:05;;;;;;;16.37;10.03;;;;;;;18.10;47.62;99039.42;2317663;76;50397;-76
2020/12/04 02:52:07;;;;;;;14.78;9.70;;;;;;;18.09;47.59;99041.81;2317618;76;50447;-76
2020/12/04 12:16:35;;;;;;;17.37;5.40;;;;;;;19.31;47.94;98804.08;2418459;72;26344;-78
2020/12/04 12:19:39;;;;;;;9.93;5.50;;;;;;;19.34;47.84;98805.48;2372200;75;51169;-77
2020/12/04 12:22:41;;;;;;;10.50;4.92;;;;;;;19.42;47.73;98820.41;2369423;75;49823;-78
2020/12/04 12:25:44;;;;;;;11.95;5.00;;;;;;;19.57;47.38;98830.14;2354406;75;51381;-79
2020/12/04 12:28:46;;;;;;;12.03;5.25;;;;;;;19.62;47.20;98839.65;2354439;75;49810;-77
2020/12/04 12:31:48;;;;;;;18.25;5.37;;;;;;;19.72;46.94;98846.62;2373392;74;51409;-76
2020/12/04 12:35:05;;;;;;;9.78;4.87;;;;;;;19.79;46.83;98841.95;2384108;74;50463;-78
2020/12/04 12:38:07;;;;;;;9.83;5.28;;;;;;;19.82;46.71;98841.20;2369182;74;22918;-77
2020/12/04 12:41:09;;;;;;;8.68;4.72;;;;;;;19.94;46.44;98857.58;2361054;73;51399;-78
2020/12/04 12:44:11;;;;;;;7.58;4.87;;;;;;;19.95;46.41;98847.66;2336304;75;50548;-77
2020/12/04 12:47:14;;;;;;;7.85;5.33;;;;;;;20.01;46.27;98844.02;2333079;74;51601;-75
2020/12/04 12:50:17;;;;;;;6.92;4.75;;;;;;;20.07;46.15;98851.67;2397176;74;50660;-74
2020/12/04 12:53:18;;;;;;;6.47;4.80;;;;;;;;;;2361407;74;50195;-78
2020/12/04 12:56:20;;;;;;;8.83;4.95;;;;;;;20.16;45.90;98842.18;2358363;74;50314;-78
2020/12/04 12:59:23;;;;;;;11.18;5.53;;;;;;;20.12;45.99;98840.51;2357651;75;50407;-77
2020/12/04 13:02:25;;;;;;;7.00;4.65;;;;;;;20.14;46.13;98838.41;2373296;74;51446;-76
2020/12/04 13:05:34;;;;;;;7.37;4.58;;;;;;;20.13;46.18;98841.31;2360649;74;51433;-77
2020/12/04 13:08:36;;;;;;;8.33;4.97;;;;;;;20.20;46.03;98836.64;2358617;75;51438;-78
2020/12/04 13:11:38;;;;;;;6.62;5.15;;;;;;;20.15;46.09;98818.55;2364408;74;51391;-79
2020/12/04 13:14:40;;;;;;;10.05;4.87;;;;;;;20.22;45.95;98823.27;2364222;74;50300;-78
2020/12/04 13:17:43;;;;;;;6.62;5.03;;;;;;;20.25;45.91;98817.13;2374698;74;50445;-78
2020/12/04 13:20:45;;;;;;;7.10;4.62;;;;;;;20.25;45.90;98813.10;2361624;75;50701;-76
2020/12/04 13:23:47;;;;;;;6.58;4.80;;;;;;;20.22;45.90;98808.48;2352116;74;50696;-76
2020/12/04 13:26:49;;;;;;;6.33;5.17;;;;;;;20.34;45.71;98810.30;2257932;78;51399;-78
2020/12/04 13:29:51;;;;;;;8.33;4.60;;;;;;;20.30;45.74;98815.36;2341673;75;51415;-78
2020/12/04 13:32:54;;;;;;;7.87;5.15;;;;;;;20.28;45.78;98816.64;2279557;78;50657;-79
2020/12/04 13:35:57;;;;;;;7.00;4.78;;;;;;;20.29;45.76;98801.62;2252990;78;50389;-77
2020/12/04 13:38:59;;;;;;;7.55;4.90;;;;;;;20.29;45.78;98802.96;2379258;74;50641;-77
2020/12/04 13:42:01;;;;;;;5.72;4.58;;;;;;;20.30;45.77;98801.11;2382215;74;50087;-77
2020/12/04 13:45:04;;;;;;;11.45;5.12;;;;;;;20.37;45.61;98802.60;2382146;74;50658;-76
2020/12/04 13:48:06;;;;;;;7.50;5.00;;;;;;;20.36;45.62;98800.14;2380500;74;50635;-78
2020/12/04 13:51:08;;;;;;;7.35;5.10;;;;;;;20.33;45.72;98808.69;2341372;74;51635;-78
2020/12/04 13:54:11;;;;;;;7.58;4.80;;;;;;;20.34;45.70;98807.62;2358079;74;51439;-77
2020/12/04 13:57:13;;;;;;;6.42;4.80;;;;;;;20.31;45.73;98821.00;2352237;74;51455;-78
2020/12/04 14:00:15;;;;;;;7.05;4.58;;;;;;;20.31;45.76;98828.25;2373895;75;51530;-78
2020/12/04 14:03:18;;;;;;;6.55;4.97;;;;;;;20.37;45.65;98820.06;2367319;74;50284;-77
2020/12/04 14:06:20;;;;;;;6.35;4.53;;;;;;;20.38;45.59;98814.16;2369080;75;52194;-77
2020/12/04 14:09:22;;;;;;;7.92;4.78;;;;;;;20.36;45.64;98809.55;2342909;74;51474;-76
2020/12/04 14:12:24;;;;;;;6.85;4.40;;;;;;;20.38;45.62;98804.75;2354090;75;50346;-76
2020/12/04 14:15:26;;;;;;;10.13;5.22;;;;;;;20.34;45.71;98800.38;2373700;74;50275;-76
2020/12/04 14:18:28;;;;;;;9.28;5.30;;;;;;;20.39;45.68;98802.34;2343036;75;50013;-76
2020/12/04 14:21:31;;;;;;;8.20;5.40;;;;;;;20.35;45.75;98810.61;2335109;75;50631;-77
2020/12/04 14:24:33;;;;;;;7.83;5.10;;;;;;;20.40;45.58;98812.86;2333318;75;51453;-77
2020/12/04 14:27:36;;;;;;;8.33;4.97;;;;;;;20.40;45.54;98812.86;2333339;75;50636;-77
2020/12/04 14:30:38;;;;;;;9.85;5.58;;;;;;;20.45;45.50;98801.41;2348023;75;50680;-77
2020/12/04 14:33:40;;;;;;;7.72;4.83;;;;;;;20.43;45.60;98807.54;2374089;75;51369;-77
2020/12/04 14:36:42;;;;;;;9.15;5.20;;;;;;;20.45;45.56;98802.22;2373473;74;51518;-77
2020/12/04 14:39:44;;;;;;;12.30;5.15;;;;;;;20.41;45.65;98810.98;2373363;73;51188;-77
2020/12/04 14:42:47;;;;;;;6.92;4.90;;;;;;;20.39;45.68;98816.59;2373444;74;51458;-76
2020/12/04 14:45:49;;;;;;;8.75;5.20;;;;;;;20.42;45.67;98823.35;2356675;74;50610;-76
2020/12/04 14:48:51;;;;;;;9.83;5.05;;;;;;;20.41;45.69;98827.11;2356614;75;52171;-76
2020/12/04 14:51:53;;;;;;;13.93;5.20;;;;;;;20.39;45.68;98819.80;2373528;75;52440;-78
2020/12/04 14:54:55;;;;;;;7.72;4.95;;;;;;;20.44;45.53;98819.37;2345386;74;50249;-76
2020/12/04 14:57:58;;;;;;;9.18;5.20;;;;;;;20.43;45.63;98830.38;2343642;74;50329;-76
2020/12/04 15:01:00;;;;;;;8.95;4.97;;;;;;;20.46;45.53;98832.58;2338800;75;50240;-77
2020/12/04 15:04:02;;;;;;;11.57;5.40;;;;;;;20.51;45.34;98838.05;2373801;75;50720;-77
2020/12/04 15:07:04;;;;;;;7.10;4.97;;;;;;;20.54;45.22;98845.66;2353904;73;51435;-76
2020/12/04 15:10:06;;;;;;;8.73;4.75;;;;;;;20.51;45.26;98850.67;2332761;75;52198;-78
2020/12/04 15:13:09;;;;;;;8.35;5.40;;;;;;;20.55;45.11;98854.02;2365981;75;50544;-78
2020/12/04 15:16:12;;;;;;;9.85;5.15;;;;;;;20.52;45.10;98858.47;2375723;74;50271;-77
2020/12/04 15:19:14;;;;;;;8.30;5.05;;;;;;;20.45;45.16;98860.51;2361754;74;51436;-77
2020/12/04 15:22:16;;;;;;;7.70;5.20;;;;;;;20.53;44.92;98869.53;2400739;74;50332;-76
2020/12/04 15:25:19;;;;;;;5.78;4.67;;;;;;;20.50;44.97;98869.17;2401637;74;50684;-78
2020/12/04 15:28:21;;;;;;;7.72;5.10;;;;;;;20.52;44.88;98880.50;2372074;74;52228;-77
2020/12/04 15:31:23;;;;;;;7.90;5.35;;;;;;;20.47;44.93;98884.43;2363647;74;51044;-77
2020/12/04 15:34:25;;;;;;;8.68;5.67;;;;;;;20.51;44.81;98883.72;2372175;74;51374;-77
2020/12/04 15:37:28;;;;;;;7.15;4.45;;;;;;;20.44;44.95;98879.00;2376282;74;51429;-76
2020/12/04 15:40:31;;;;;;;8.08;5.53;;;;;;;20.47;44.89;98887.12;2364438;74;50563;-77
2020/12/04 15:43:33;;;;;;;7.12;5.08;;;;;;;20.48;44.85;98886.89;2356506;74;51442;-77
2020/12/04 15:46:35;;;;;;;6.83;5.12;;;;;;;20.46;44.86;98886.30;2366285;74;52294;-78
2020/12/04 15:49:38;;;;;;;6.92;5.45;;;;;;;20.48;44.76;98881.52;2245708;79;51532;-77
2020/12/04 15:52:40;;;;;;;7.30;5.33;;;;;;;20.51;44.70;98878.34;2399484;74;50653;-76
2020/12/04 15:55:42;;;;;;;7.10;5.03;;;;;;;20.52;44.64;98866.53;2401242;74;51385;-76
2020/12/04 15:58:44;;;;;;;6.20;5.17;;;;;;;20.51;44.67;98866.79;2401676;74;51427;-77
2020/12/04 16:01:47;;;;;;;7.12;5.37;;;;;;;20.53;44.59;98878.13;2391362;74;50235;-77
2020/12/04 16:04:49;;;;;;;7.50;5.62;;;;;;;20.55;44.53;98874.67;2379295;74;51406;-75
2020/12/04 16:07:51;;;;;;;8.08;5.62;;;;;;;20.54;44.53;98875.20;2357036;74;50625;-77
2020/12/04 16:10:54;;;;;;;8.53;5.72;;;;;;;20.53;44.56;98875.44;2364048;74;51381;-77
2020/12/04 16:13:56;;;;;;;7.80;5.28;;;;;;;20.51;44.55;98872.97;2379065;74;50566;-77
2020/12/04 16:16:58;;;;;;;7.17;5.22;;;;;;;20.56;44.43;98877.13;2373018;74;52326;-78
2020/12/04 16:20:01;;;;;;;8.93;5.28;;;;;;;20.49;44.48;98880.45;2373389;74;52350;-77
2020/12/04 16:23:03;;;;;;;11.20;5.70;;;;;;;20.58;44.34;98884.44;2373904;74;50515;-78
2020/12/04 16:26:05;;;;;;;6.67;5.10;;;;;;;20.52;44.59;98890.72;2379822;74;51418;-78
2020/12/04 16:29:07;;;;;;;8.95;5.60;;;;;;;20.62;44.48;98900.35;2379389;74;52487;-77
2020/12/04 16:32:10;;;;;;;8.48;5.62;;;;;;;20.62;44.52;98912.45;2379869;74;50835;-76
2020/12/04 16:35:12;;;;;;;7.60;5.90;;;;;;;20.62;44.57;98909.76;2379856;74;51432;-77
2020/12/04 16:38:14;;;;;;;6.67;5.60;;;;;;;20.53;44.84;98903.64;2374409;74;51403;-77
2020/12/04 16:41:16;;;;;;;7.42;5.85;;;;;;;20.64;44.57;98904.16;2379471;74;51525;-77
2020/12/04 16:44:18;;;;;;;10.18;5.78;;;;;;;20.59;44.90;98908.90;2358530;74;50602;-78
2020/12/04 16:47:21;;;;;;;7.12;5.55;;;;;;;20.58;45.02;98909.97;2356002;74;51496;-78
2020/12/04 16:50:23;;;;;;;9.25;5.97;;;;;;;20.55;45.13;98901.05;2355794;75;51415;-77
2020/12/04 16:53:25;;;;;;;10.78;6.60;;;;;;;20.60;45.06;98905.17;2369168;74;50316;-78
2020/12/04 16:56:27;;;;;;;9.18;6.62;;;;;;;20.59;45.08;98898.15;2379251;74;50286;-78
2020/12/04 16:59:31;;;;;;;8.80;6.25;;;;;;;20.57;45.12;98903.47;2378608;74;50608;-77
2020/12/04 17:02:36;;;;;;;8.00;5.87;;;;;;;20.54;45.19;98900.73;2373610;74;51447;-79
2020/12/04 17:05:38;;;;;;;9.30;6.83;;;;;;;20.53;45.18;98899.62;2375119;74;50177;-79
2020/12/04 17:08:40;;;;;;;10.03;6.65;;;;;;;20.56;45.27;98904.00;2369875;74;50653;-79
2020/12/04 17:11:42;;;;;;;11.80;6.58;;;;;;;20.61;45.26;98906.80;2368279;74;51566;-78
2020/12/04 17:14:45;;;;;;;11.43;6.40;;;;;;;20.62;45.47;98917.82;2366845;74;50515;-78
2020/12/04 17:17:47;;;;;;;13.95;7.08;;;;;;;20.72;45.57;98919.09;2356919;74;51359;-79
2020/12/04 17:20:49;;;;;;;12.75;6.95;;;;;;;20.69;46.03;98922.26;2355893;75;50575;-79
2020/12/04 17:23:51;;;;;;;11.48;7.33;;;;;;;20.69;46.34;98920.38;2355753;74;51445;-79
2020/12/04 17:26:53;;;;;;;12.88;8.08;;;;;;;20.72;46.64;98923.12;2370769;73;51413;-79
2020/12/04 17:29:56;;;;;;;20.70;11.75;;;;;;;20.75;46.81;98920.76;2428660;73;51384;-78
2020/12/04 17:32:58;;;;;;;24.92;14.43;;;;;;;20.69;47.13;98923.60;2429749;73;51334;-76
2020/12/04 17:36:01;;;;;;;28.80;15.00;;;;;;;20.73;47.10;98918.86;2429701;73;51394;-78
2020/12/04 17:39:03;;;;;;;29.65;15.13;;;;;;;20.86;46.96;98922.60;2392042;73;52180;-76
2020/12/04 17:42:05;;;;;;;32.03;14.93;;;;;;;20.81;47.02;98907.72;2385748;74;50411;-76
2020/12/04 17:45:09;;;;;;;27.45;13.95;;;;;;;20.79;46.99;98907.14;2384908;74;50079;-77
2020/12/04 17:48:13;;;;;;;30.52;14.47;;;;;;;20.90;46.94;98916.74;2355858;74;51470;-78
2020/12/04 17:51:15;;;;;;;27.85;13.40;;;;;;;20.84;46.91;98909.11;2345792;74;22366;-76
2020/12/04 17:54:17;;;;;;;22.73;13.38;;;;;;;20.87;46.85;98918.84;2396962;74;51426;-78
2020/12/04 17:57:19;;;;;;;27.00;13.93;;;;;;;20.82;46.85;98921.44;2373706;74;50314;-77
2020/12/04 18:00:22;;;;;;;24.00;13.62;;;;;;;20.82;46.83;98909.88;2382392;74;50682;-78
2020/12/04 18:03:24;;;;;;;24.07;13.10;;;;;;;20.87;46.72;98895.19;2361668;74;50541;-79
2020/12/04 18:06:26;;;;;;;27.30;13.80;;;;;;;20.82;46.79;98896.44;2371617;74;51530;-78
2020/12/04 18:09:28;;;;;;;27.13;13.22;;;;;;;20.90;46.63;98896.58;2362650;74;51407;-77
2020/12/04 18:12:30;;;;;;;25.62;12.80;;;;;;;20.86;46.78;98893.03;2369472;74;50402;-76
2020/12/04 18:15:33;;;;;;;32.28;13.45;;;;;;;20.91;46.90;98900.38;2386091;74;50169;-76
2020/12/04 18:18:35;;;;;;;29.12;12.88;;;;;;;20.88;47.09;98911.59;2354976;75;50930;-77
2020/12/04 18:21:43;;;;;;;27.75;12.63;;;;;;;20.91;47.16;98917.86;2355354;74;51499;-76
2020/12/04 18:24:45;;;;;;;28.60;11.95;;;;;;;20.89;47.32;98922.66;2365975;74;51348;-77
2020/12/04 18:27:48;;;;;;;30.23;12.58;;;;;;;20.97;47.16;98939.73;2385592;74;50350;-76
2020/12/04 18:30:50;;;;;;;48.02;12.47;;;;;;;20.95;47.42;98946.41;2376701;74;51699;-78
2020/12/04 18:33:52;;;;;;;32.45;12.05;;;;;;;20.95;47.41;98950.45;2396213;74;50312;-75
2020/12/04 18:36:55;;;;;;;31.97;12.07;;;;;;;20.91;47.58;98941.21;2359389;74;50161;-75
2020/12/04 18:39:57;;;;;;;36.38;13.40;;;;;;;20.92;47.70;98940.98;2376368;74;50735;-77
2020/12/04 18:42:59;;;;;;;35.28;12.82;;;;;;;20.87;47.81;98921.53;2388743;74;51503;-76
2020/12/04 18:46:01;;;;;;;41.80;12.95;;;;;;;20.79;47.98;98927.83;2371111;74;51466;-77
2020/12/04 18:49:04;;;;;;;34.73;12.85;;;;;;;20.76;47.97;98918.91;2357262;74;51416;-76
2020/12/04 18:52:06;;;;;;;36.42;12.75;;;;;;;20.74;47.80;98919.14;2368195;74;51534;-77
2020/12/04 18:55:08;;;;;;;39.60;14.00;;;;;;;20.74;47.60;98923.17;2365164;74;51786;-78
2020/12/04 18:58:11;;;;;;;53.68;14.00;;;;;;;20.69;47.57;98916.88;2374125;74;51521;-78
2020/12/04 19:01:14;;;;;;;34.65;12.05;;;;;;;20.55;47.92;98927.91;2392644;74;51495;-78
2020/12/04 19:04:16;;;;;;;36.85;12.58;;;;;;;20.48;48.11;98918.32;2385246;74;50641;-75
2020/12/04 19:07:18;;;;;;;41.02;13.22;;;;;;;20.46;48.03;98925.27;2380936;74;51420;-75
2020/12/04 19:10:20;;;;;;;37.23;13.43;;;;;;;20.43;48.00;98921.18;2396033;74;51531;-75
2020/12/04 19:13:23;;;;;;;32.60;12.25;;;;;;;20.41;48.06;98915.75;2369289;74;51515;-74
2020/12/04 19:16:25;;;;;;;31.05;13.43;;;;;;;20.39;48.12;98917.86;2354718;75;50709;-75
2020/12/04 19:19:27;;;;;;;24.32;11.65;;;;;;;20.40;48.17;98924.88;2368202;74;51433;-75
2020/12/04 19:22:29;;;;;;;28.90;12.00;;;;;;;20.38;48.55;98924.30;2362133;74;51488;-75
2020/12/04 19:25:31;;;;;;;36.20;12.35;;;;;;;20.39;48.78;98928.07;2355255;74;50298;-75
2020/12/04 19:28:34;;;;;;;24.15;11.63;;;;;;;20.39;48.87;98938.81;2355723;74;50251;-75
2020/12/04 19:31:37;;;;;;;19.82;11.50;;;;;;;20.40;48.97;98936.44;2362158;74;50570;-76
2020/12/04 19:34:40;;;;;;;41.10;12.28;;;;;;;20.41;49.00;98942.62;2355110;74;51476;-76
2020/12/04 19:37:42;;;;;;;27.40;12.40;;;;;;;20.44;48.91;98934.89;2355410;74;51488;-75
2020/12/04 19:40:44;;;;;;;22.05;10.63;;;;;;;20.44;48.85;98929.52;2361546;74;51474;-74
2020/12/04 19:43:46;;;;;;;25.57;11.35;;;;;;;20.46;48.80;98918.55;2354878;75;51414;-75
2020/12/04 19:46:49;;;;;;;24.87;11.57;;;;;;;20.49;48.73;98908.66;2355045;74;50274;-75
2020/12/04 19:49:51;;;;;;;24.82;11.93;;;;;;;20.48;48.79;98919.13;2355093;75;51440;-75
2020/12/04 19:52:53;;;;;;;29.67;11.73;;;;;;;20.49;48.78;98922.09;2359026;74;49732;-75
2020/12/04 19:55:59;;;;;;;26.68;12.20;;;;;;;20.48;48.74;98928.53;2374747;74;50313;-74
2020/12/04 19:59:01;;;;;;;17.12;10.50;;;;;;;20.44;48.80;98924.68;2358943;74;50289;-74
2020/12/04 20:02:04;;;;;;;21.27;11.12;;;;;;;20.40;48.87;98931.59;2375344;74;50098;-77
2020/12/04 20:05:10;;;;;;;19.27;11.10;;;;;;;20.36;48.78;98936.61;2355055;75;51361;-74
2020/12/04 20:08:16;;;;;;;28.07;11.03;;;;;;;20.39;48.66;98955.47;2388466;74;50296;-76
2020/12/04 20:11:18;;;;;;;20.52;10.70;;;;;;;20.39;48.67;98962.99;2390677;73;51476;-75
2020/12/04 20:14:22;;;;;;;24.77;11.85;;;;;;;20.37;48.85;98960.25;2355094;75;51516;-75
2020/12/04 20:17:24;;;;;;;23.52;11.33;;;;;;;20.37;48.88;98965.63;2373068;74;50365;-76
2020/12/04 20:20:26;;;;;;;28.85;12.23;;;;;;;20.34;49.04;98966.91;2401991;74;50311;-76
2020/12/04 20:23:28;;;;;;;27.15;11.78;;;;;;;20.34;49.05;98952.13;2266038;77;50568;-76
2020/12/04 20:26:30;;;;;;;17.73;10.88;;;;;;;20.34;49.03;98950.80;2383494;74;50336;-73
2020/12/04 20:29:34;;;;;;;19.25;11.15;;;;;;;20.36;49.00;98951.38;2351975;74;50739;-73
2020/12/04 20:32:37;;;;;;;27.40;10.60;;;;;;;20.38;48.91;98934.50;2354975;75;51484;-73
2020/12/04 20:35:40;;;;;;;21.80;10.98;;;;;;;20.41;48.98;98938.59;2355257;74;50294;-74
2020/12/04 20:38:43;;;;;;;25.08;11.73;;;;;;;20.43;48.91;98937.83;2388483;74;51527;-74
2020/12/04 20:41:47;;;;;;;23.70;10.40;;;;;;;20.43;48.94;98956.11;2366244;74;51445;-73
2020/12/04 20:44:49;;;;;;;19.62;10.75;;;;;;;20.44;48.93;98955.58;2331865;75;52141;-73
2020/12/04 20:47:51;;;;;;;18.98;10.03;;;;;;;20.45;48.91;98936.55;2386795;74;50381;-76
2020/12/04 20:50:54;;;;;;;16.60;9.55;;;;;;;20.48;48.85;98925.84;2300251;76;50291;-76
2020/12/04 20:53:56;;;;;;;23.70;11.65;;;;;;;20.49;48.69;98938.22;2392425;74;50647;-75
2020/12/04 20:56:58;;;;;;;16.12;10.35;;;;;;;20.45;48.52;98934.39;2370216;74;51301;-75
2020/12/04 21:00:00;;;;;;;18.20;10.58;;;;;;;20.40;48.44;98933.75;2351671;75;51515;-75
2020/12/04 21:03:03;;;;;;;18.50;10.88;;;;;;;20.39;48.36;98939.34;2354267;74;50290;-76
2020/12/04 21:06:05;;;;;;;18.95;11.70;;;;;;;20.35;48.38;98936.33;2354407;74;51485;-76
2020/12/04 21:09:07;;;;;;;24.40;10.72;;;;;;;20.34;48.27;98938.70;2358822;74;50655;-75
2020/12/04 21:12:09;;;;;;;16.87;9.43;;;;;;;20.31;48.23;98943.21;2351549;74;51343;-75
2020/12/04 21:15:11;;;;;;;22.17;10.72;;;;;;;20.28;48.14;98949.06;2351538;75;50344;-75
2020/12/04 21:18:14;;;;;;;20.55;11.40;;;;;;;20.23;48.14;98956.48;2351581;74;50058;-75
2020/12/04 21:21:16;;;;;;;20.97;11.05;;;;;;;20.19;48.08;98966.07;2342416;74;50664;-75
2020/12/04 21:24:18;;;;;;;19.62;11.55;;;;;;;20.15;48.08;98956.84;2340978;74;51544;-75
2020/12/04 21:27:21;;;;;;;21.17;11.40;;;;;;;20.08;48.11;98949.95;2341081;76;51447;-75
2020/12/04 21:30:23;;;;;;;26.15;12.78;;;;;;;20.03;48.11;98939.91;2353477;74;51873;-74
2020/12/04 21:33:25;;;;;;;22.85;12.00;;;;;;;19.95;48.21;98966.58;2339754;75;50327;-75
2020/12/04 21:36:27;;;;;;;22.87;12.03;;;;;;;19.88;48.31;98969.08;2343858;75;50408;-74
2020/12/04 21:39:29;;;;;;;19.20;11.35;;;;;;;19.82;48.39;98955.27;2338585;74;50667;-74
2020/12/04 21:42:31;;;;;;;22.70;11.75;;;;;;;19.75;48.53;98949.99;2338263;76;51588;-73
2020/12/04 21:45:34;;;;;;;22.40;12.73;;;;;;;19.69;48.70;98946.38;2338453;76;51443;-74
2020/12/04 21:48:36;;;;;;;23.00;12.63;;;;;;;19.63;48.75;98947.28;2377796;74;49965;-74
2020/12/04 21:51:38;;;;;;;25.27;12.30;;;;;;;19.58;48.83;98968.62;2378413;74;50173;-75
2020/12/04 21:54:40;;;;;;;21.40;12.45;;;;;;;19.53;49.09;98966.63;2380012;74;50388;-76
2020/12/04 21:57:42;;;;;;;19.62;12.53;;;;;;;19.47;49.12;98977.44;2373568;74;50296;-74
2020/12/04 22:00:45;;;;;;;21.55;12.85;;;;;;;19.45;49.13;98972.33;2339575;76;50670;-75
2020/12/04 22:03:47;;;;;;;26.10;13.08;;;;;;;19.46;49.00;98960.53;2339519;75;51455;-74
2020/12/04 22:06:49;;;;;;;26.05;12.80;;;;;;;19.43;49.03;98965.02;2339877;76;52257;-76
2020/12/04 22:09:51;;;;;;;23.47;13.72;;;;;;;19.40;49.00;98972.72;2340066;74;51495;-77
2020/12/04 22:12:54;;;;;;;21.85;12.05;;;;;;;19.39;49.02;98996.55;2340235;76;51469;-77
2020/12/04 22:15:59;;;;;;;26.87;13.15;;;;;;;19.36;49.14;99006.68;2343829;74;50246;-76
2020/12/04 22:19:00;;;;;;;33.05;13.88;;;;;;;19.35;49.29;99008.27;2375444;74;22407;-77
2020/12/04 22:22:03;;;;;;;27.30;14.00;;;;;;;19.33;49.09;99003.13;2340341;76;51504;-77
2020/12/04 22:25:05;;;;;;;24.72;13.30;;;;;;;19.30;49.13;98986.16;2340450;76;50243;-75
2020/12/04 22:28:07;;;;;;;28.07;14.13;;;;;;;19.30;49.01;98975.95;2340650;75;50203;-74
2020/12/04 22:31:14;;;;;;;21.77;13.70;;;;;;;19.28;48.94;98966.78;2366706;74;50752;-75
2020/12/04 22:34:16;;;;;;;23.40;13.78;;;;;;;19.27;48.82;98973.20;2340248;76;50409;-75
2020/12/04 22:37:19;;;;;;;23.45;13.62;;;;;;;19.22;48.94;98969.05;2340241;76;50674;-75
2020/12/04 22:40:21;;;;;;;23.80;13.93;;;;;;;19.23;48.94;98967.98;2340354;76;51473;-75
2020/12/04 22:43:23;;;;;;;24.47;14.40;;;;;;;19.21;48.93;98971.42;2375324;74;51561;-75
2020/12/04 22:46:25;;;;;;;24.52;13.45;;;;;;;19.19;48.89;98949.90;2380971;74;51462;-75
2020/12/04 22:49:28;;;;;;;26.30;13.78;;;;;;;19.16;48.89;98928.38;2380882;74;51485;-75
2020/12/04 22:52:30;;;;;;;27.42;13.75;;;;;;;19.15;48.91;98926.23;2380689;74;51435;-74
2020/12/04 22:55:32;;;;;;;23.02;13.20;;;;;;;19.13;48.86;98928.84;2380812;74;50343;-75
2020/12/04 22:58:34;;;;;;;24.65;14.00;;;;;;;19.13;48.80;98926.17;2380658;74;50134;-75
2020/12/04 23:01:37;;;;;;;21.70;14.00;;;;;;;19.09;48.83;98916.44;2380582;74;50672;-76
2020/12/04 23:04:39;;;;;;;23.00;14.03;;;;;;;19.08;48.83;98940.25;2380661;74;51547;-76
2020/12/04 23:07:41;;;;;;;24.35;13.93;;;;;;;19.05;48.77;98923.81;2380664;74;51474;-76
2020/12/04 23:10:43;;;;;;;22.35;14.00;;;;;;;19.04;48.85;98923.00;2380688;74;50356;-75
2020/12/04 23:13:45;;;;;;;21.93;13.55;;;;;;;19.04;48.89;98924.88;2373450;74;50264;-75
2020/12/04 23:16:47;;;;;;;21.55;13.25;;;;;;;19.02;48.89;98909.00;2373472;75;50578;-75
2020/12/04 23:19:50;;;;;;;19.80;13.45;;;;;;;19.02;48.89;98910.87;2343222;75;51463;-75
2020/12/04 23:22:52;;;;;;;20.60;13.50;;;;;;;19.00;48.84;98904.39;2349658;75;52341;-74
2020/12/04 23:25:54;;;;;;;21.90;13.22;;;;;;;19.00;48.79;98902.23;2351544;74;51472;-75
2020/12/04 23:28:56;;;;;;;26.73;13.48;;;;;;;18.99;48.74;98891.23;2351248;75;50348;-76